Time;durP1;ratioP1;P1;durP2;ratioP2;P2;SDS_P1;SDS_P2;PMS_P1;PMS_P2;Temp;Humidity;BMP_temperature;BMP_pressure;BME280_temperature;BME280_humidity;BME280_pressure;Samples;Min_cycle;Max_cycle;Signal;HPM_P1;HPM_P2
2022/09/07 00:01:33;;;;;;;4.78;3.70;;;21.90;95.10;;;;;;5052457;28;20196;-42
2022/09/07 00:04:00;;;;;;;5.03;3.67;;;21.80;95.20;;;;;;5066849;28;20199;-43
2022/09/07 00:06:28;;;;;;;5.38;3.78;;;21.80;95.20;;;;;;5064148;28;20303;-42
2022/09/07 00:08:57;;;;;;;6.50;3.78;;;21.80;95.10;;;;;;5051567;28;20196;-42
2022/09/07 00:11:29;;;;;;;4.63;3.67;;;21.70;95.10;;;;;;5062312;28;20207;-38
2022/09/07 00:13:59;;;;;;;6.53;3.60;;;21.70;95.10;;;;;;5052286;28;20250;-37
2022/09/07 00:16:32;;;;;;;4.82;3.65;;;21.70;95.20;;;;;;5061391;28;20196;-38
2022/09/07 00:19:02;;;;;;;5.85;4.18;;;21.70;95.20;;;;;;5067976;28;21009;-38
2022/09/07 00:21:32;;;;;;;6.00;4.07;;;21.70;95.40;;;;;;5067961;28;20208;-38
2022/09/07 00:24:02;;;;;;;5.30;4.13;;;21.60;95.30;;;;;;5047428;28;20208;-37
2022/09/07 00:26:30;;;;;;;6.07;3.97;;;21.60;95.30;;;;;;5047262;28;20683;-38
2022/09/07 00:29:05;;;;;;;6.30;4.20;;;21.60;95.30;;;;;;5046233;28;20254;-38
2022/09/07 00:31:32;;;;;;;6.97;3.90;;;21.60;95.30;;;;;;5050001;28;20212;-41
2022/09/07 00:34:02;;;;;;;6.60;4.32;;;21.50;95.30;;;;;;5048976;28;20228;-38
2022/09/07 00:36:34;;;;;;;5.18;4.28;;;21.50;95.40;;;;;;5059553;28;20211;-37
2022/09/07 00:39:04;;;;;;;4.68;4.25;;;21.50;95.40;;;;;;5068153;28;20680;-38
2022/09/07 00:41:31;;;;;;;5.25;3.92;;;21.50;95.60;;;;;;5067887;28;20214;-37
2022/09/07 00:44:37;;;;;;;6.43;4.30;;;21.40;95.60;;;;;;5066239;28;20627;-38
2022/09/07 00:47:23;;;;;;;4.93;4.35;;;21.50;95.90;;;;;;5047908;28;20734;-37
2022/09/07 00:50:00;;;;;;;5.72;4.00;;;21.50;96.00;;;;;;5052343;28;20224;-37
2022/09/07 00:52:29;;;;;;;5.28;3.55;;;21.40;95.70;;;;;;5054705;28;20261;-37
2022/09/07 00:55:08;;;;;;;2.75;2.30;;;21.40;95.70;;;;;;5071384;28;20222;-37
2022/09/07 00:57:41;;;;;;;4.85;2.95;;;21.40;95.70;;;;;;5068954;28;20215;-37
2022/09/07 01:00:09;;;;;;;3.10;2.80;;;21.40;95.70;;;;;;5050038;28;20205;-38
2022/09/07 01:02:37;;;;;;;3.40;2.80;;;21.40;95.70;;;;;;5051564;28;20721;-37
2022/09/07 01:05:16;;;;;;;4.18;3.00;;;21.40;95.70;;;;;;5051455;28;20351;-37
2022/09/07 01:07:43;;;;;;;3.63;2.92;;;21.40;95.80;;;;;;5054399;28;20307;-37
2022/09/07 01:10:11;;;;;;;3.83;3.53;;;21.40;95.80;;;;;;5052133;28;20586;-37
2022/09/07 01:12:40;;;;;;;5.72;3.05;;;21.40;95.80;;;;;;5051605;28;20643;-37
2022/09/07 01:15:10;;;;;;;3.60;3.30;;;21.40;95.80;;;;;;5055229;28;20269;-37
2022/09/07 01:17:52;;;;;;;5.32;3.50;;;21.50;95.90;;;;;;5050947;28;20309;-42
2022/09/07 01:20:34;;;;;;;5.10;3.78;;;21.50;95.80;;;;;;5054761;28;20235;-42
2022/09/07 01:23:27;;;;;;;4.50;3.83;;;21.50;95.90;;;;;;5060291;28;20227;-42
2022/09/07 01:26:25;;;;;;;3.63;3.33;;;21.50;96.20;;;;;;5054323;28;20952;-43
2022/09/07 01:29:02;;;;;;;4.43;3.75;;;21.60;96.10;;;;;;5058303;28;20646;-41
2022/09/07 01:32:06;;;;;;;4.20;3.80;;;21.60;96.20;;;;;;5063882;28;20245;-42
2022/09/07 01:34:36;;;;;;;4.20;3.80;;;21.60;96.50;;;;;;5052044;28;20251;-43
2022/09/07 01:37:09;;;;;;;4.40;4.00;;;21.60;96.20;;;;;;5049802;28;20298;-42
2022/09/07 01:39:48;;;;;;;4.22;3.92;;;21.60;96.40;;;;;;5050357;28;20212;-42
2022/09/07 01:42:23;;;;;;;5.07;4.53;;;21.60;96.40;;;;;;5049541;28;20216;-42
2022/09/07 01:45:00;;;;;;;5.97;5.38;;;21.60;96.40;;;;;;5063728;28;20292;-42
2022/09/07 01:47:55;;;;;;;8.82;6.75;;;21.70;96.60;;;;;;5075713;28;20264;-42
2022/09/07 01:50:31;;;;;;;7.90;6.28;;;21.60;96.60;;;;;;5056607;28;20711;-42
2022/09/07 01:53:03;;;;;;;7.03;6.30;;;21.60;96.50;;;;;;5049898;28;20212;-42
2022/09/07 01:55:56;;;;;;;6.55;5.90;;;21.60;96.40;;;;;;5048494;28;20865;-42
2022/09/07 01:58:31;;;;;;;9.70;6.28;;;21.60;96.40;;;;;;5057333;28;20232;-41
2022/09/07 02:01:33;;;;;;;8.50;5.68;;;21.60;96.50;;;;;;5049978;28;20254;-42
2022/09/07 02:04:16;;;;;;;6.20;5.47;;;21.60;96.60;;;;;;5047942;28;20231;-42
2022/09/07 02:06:52;;;;;;;7.18;5.57;;;21.70;96.70;;;;;;5068657;28;20219;-42
2022/09/07 02:09:40;;;;;;;7.70;6.97;;;21.70;96.50;;;;;;5052782;28;20219;-47
2022/09/07 02:12:31;;;;;;;8.60;7.82;;;21.70;96.90;;;;;;5062987;28;20208;-41
2022/09/07 02:15:03;;;;;;;8.07;7.28;;;21.60;97.00;;;;;;5048397;28;20228;-42
2022/09/07 02:17:37;;;;;;;8.55;7.65;;;21.60;96.40;;;;;;5056620;28;20689;-38
2022/09/07 02:20:15;;;;;;;8.52;7.55;;;21.70;96.50;;;;;;5063229;28;20199;-37
2022/09/07 02:22:47;;;;;;;8.70;7.80;;;21.70;96.70;;;;;;5061387;28;20296;-37
2022/09/07 02:25:24;;;;;;;8.13;7.32;;;21.70;96.60;;;;;;5064702;28;20351;-38
2022/09/07 02:28:14;;;;;;;8.88;7.75;;;21.70;96.60;;;;;;5060782;28;20223;-38
2022/09/07 02:30:43;;;;;;;11.30;9.50;;;21.70;96.80;;;;;;5054721;28;20199;-38
2022/09/07 02:33:11;;;;;;;10.35;8.80;;;21.70;97.10;;;;;;5050457;28;20208;-38
2022/09/07 02:35:38;;;;;;;9.25;8.02;;;21.60;97.00;;;;;;5060941;28;20207;-38
2022/09/07 02:38:06;;;;;;;8.95;8.15;;;21.50;96.70;;;;;;5067516;28;20251;-37
2022/09/07 02:40:34;;;;;;;10.30;8.35;;;21.50;96.70;;;;;;5067507;28;20586;-38
2022/09/07 02:43:09;;;;;;;9.10;7.70;;;21.50;96.80;;;;;;5067277;28;20224;-39
2022/09/07 02:45:57;;;;;;;8.75;7.82;;;21.50;96.80;;;;;;5049450;28;20202;-38
2022/09/07 02:48:33;;;;;;;9.38;7.60;;;21.50;96.80;;;;;;5053429;28;20658;-38
2022/09/07 02:51:10;;;;;;;10.10;8.63;;;21.60;96.80;;;;;;5047570;28;20630;-38
2022/09/07 02:54:12;;;;;;;8.60;7.80;;;21.50;96.80;;;;;;5047350;28;20690;-38
2022/09/07 02:56:39;;;;;;;9.13;8.23;;;21.60;97.10;;;;;;5046625;28;20200;-38
2022/09/07 02:59:29;;;;;;;9.25;8.32;;;21.50;96.90;;;;;;5061075;28;20271;-38
2022/09/07 03:02:11;;;;;;;10.77;9.77;;;21.60;97.00;;;;;;5064140;28;20253;-38
2022/09/07 03:04:38;;;;;;;9.32;8.52;;;21.60;97.40;;;;;;5067176;28;20285;-38
2022/09/07 03:07:16;;;;;;;9.10;8.20;;;21.50;97.10;;;;;;5053243;28;20213;-37
2022/09/07 03:09:49;;;;;;;10.13;9.13;;;21.60;97.50;;;;;;5047815;28;20669;-38
2022/09/07 03:12:16;;;;;;;10.75;9.27;;;21.60;97.10;;;;;;5044313;28;20736;-38
2022/09/07 03:14:44;;;;;;;10.88;8.57;;;21.60;96.90;;;;;;5047130;28;20212;-38
2022/09/07 03:17:11;;;;;;;9.88;8.88;;;21.60;96.80;;;;;;5050243;28;20805;-39
2022/09/07 03:19:39;;;;;;;8.98;8.07;;;21.50;96.90;;;;;;5076893;28;20225;-38
2022/09/07 03:22:08;;;;;;;8.85;7.95;;;21.50;96.90;;;;;;5072012;28;20200;-38
2022/09/07 03:24:40;;;;;;;10.02;9.05;;;21.50;97.00;;;;;;5047413;28;20294;-38
2022/09/07 03:27:13;;;;;;;10.10;9.10;;;21.50;97.00;;;;;;5062527;28;20204;-39
2022/09/07 03:29:40;;;;;;;9.38;8.48;;;21.50;97.20;;;;;;5066846;28;20199;-38
2022/09/07 03:32:08;;;;;;;9.70;8.48;;;21.50;97.10;;;;;;5052122;28;20318;-38
2022/09/07 03:34:35;;;;;;;9.52;8.65;;;21.50;97.10;;;;;;5057404;28;20203;-38
2022/09/07 03:37:02;;;;;;;9.32;8.38;;;21.50;97.10;;;;;;5048458;28;20195;-38
2022/09/07 03:39:33;;;;;;;9.70;8.80;;;21.50;97.10;;;;;;5047671;28;20554;-38
2022/09/07 03:42:03;;;;;;;10.02;9.00;;;21.40;97.10;;;;;;5048743;28;20642;-38
2022/09/07 03:44:33;;;;;;;9.20;8.40;;;21.50;97.50;;;;;;5046136;28;20224;-38
2022/09/07 03:47:02;;;;;;;9.85;8.80;;;21.40;97.20;;;;;;5050251;28;20296;-38
2022/09/07 03:49:29;;;;;;;10.63;8.82;;;21.40;97.10;;;;;;5046349;28;20291;-38
2022/09/07 03:51:56;;;;;;;9.77;8.65;;;21.50;97.20;;;;;;5050501;28;20265;-38
2022/09/07 03:54:28;;;;;;;10.07;8.98;;;21.50;97.30;;;;;;5059399;28;20218;-38
2022/09/07 03:56:58;;;;;;;9.05;8.25;;;21.40;97.30;;;;;;5055367;28;20302;-38
2022/09/07 03:59:28;;;;;;;9.80;8.85;;;21.50;97.30;;;;;;5062144;28;20281;-38
2022/09/07 04:01:55;;;;;;;9.38;8.38;;;21.50;97.40;;;;;;5047508;28;20220;-38
2022/09/07 04:04:22;;;;;;;9.10;8.20;;;21.40;97.40;;;;;;5046155;28;20317;-38
2022/09/07 04:06:52;;;;;;;10.30;9.23;;;21.40;97.40;;;;;;5061727;28;20207;-38
2022/09/07 04:09:22;;;;;;;11.18;10.07;;;21.50;97.60;;;;;;5047695;28;20278;-38
2022/09/07 04:11:49;;;;;;;11.43;9.95;;;21.50;97.50;;;;;;5045485;28;20239;-38
2022/09/07 04:14:21;;;;;;;10.68;9.57;;;21.50;97.50;;;;;;5052861;28;20216;-38
2022/09/07 04:16:51;;;;;;;10.68;9.65;;;21.50;97.70;;;;;;5057115;28;20203;-40
2022/09/07 04:19:20;;;;;;;8.88;7.85;;;21.60;97.60;;;;;;5060766;28;20636;-38
2022/09/07 04:21:48;;;;;;;9.05;8.23;;;21.60;97.60;;;;;;5052866;28;20288;-42
2022/09/07 04:24:20;;;;;;;8.68;7.88;;;21.60;97.60;;;;;;5058667;28;20300;-41
2022/09/07 04:26:48;;;;;;;9.65;8.52;;;21.60;97.60;;;;;;5054359;28;20287;-47
2022/09/07 04:29:18;;;;;;;10.93;8.45;;;21.60;97.60;;;;;;5064235;28;20203;-41
2022/09/07 04:31:47;;;;;;;11.57;9.15;;;21.60;97.60;;;;;;5060023;28;20207;-41
2022/09/07 04:34:17;;;;;;;11.00;9.65;;;21.60;97.50;;;;;;5052217;28;20573;-41
2022/09/07 04:36:47;;;;;;;11.93;9.88;;;21.60;97.60;;;;;;5049238;28;20595;-40
2022/09/07 04:39:14;;;;;;;10.60;9.60;;;21.60;97.70;;;;;;5050474;28;20205;-41
2022/09/07 04:41:44;;;;;;;11.43;10.23;;;21.60;97.70;;;;;;5050058;28;20713;-41
2022/09/07 04:44:11;;;;;;;13.65;11.27;;;21.60;97.60;;;;;;5053446;28;20222;-41
2022/09/07 04:46:43;;;;;;;14.57;12.98;;;21.60;97.60;;;;;;5053430;28;20200;-41
2022/09/07 04:49:12;;;;;;;14.90;13.40;;;21.60;97.60;;;;;;5050112;28;20246;-41
2022/09/07 04:51:43;;;;;;;14.20;12.80;;;21.70;97.70;;;;;;5062885;28;20207;-41
2022/09/07 04:54:12;;;;;;;13.80;12.43;;;21.60;97.70;;;;;;5068639;28;20230;-41
2022/09/07 04:56:40;;;;;;;16.70;12.70;;;21.70;97.80;;;;;;5053692;28;20232;-41
2022/09/07 04:59:12;;;;;;;15.13;13.48;;;21.60;97.70;;;;;;5061259;28;20312;-38
2022/09/07 05:01:44;;;;;;;14.48;13.00;;;21.70;97.80;;;;;;5056780;28;20204;-38
2022/09/07 05:04:14;;;;;;;15.23;13.73;;;21.60;97.70;;;;;;5050966;28;20228;-38
2022/09/07 05:06:41;;;;;;;14.77;13.27;;;21.60;97.70;;;;;;5055582;28;20260;-38
2022/09/07 05:09:11;;;;;;;15.23;13.70;;;21.70;97.70;;;;;;5051505;28;20204;-38
2022/09/07 05:11:43;;;;;;;16.35;14.68;;;21.60;97.70;;;;;;5051822;28;20208;-38
2022/09/07 05:14:11;;;;;;;15.60;13.88;;;21.60;97.70;;;;;;5062245;28;20213;-41
2022/09/07 05:16:45;;;;;;;17.63;13.88;;;21.60;97.70;;;;;;5058195;28;20203;-41
2022/09/07 05:19:15;;;;;;;17.10;14.45;;;21.60;97.80;;;;;;5068608;28;20198;-41
2022/09/07 05:21:42;;;;;;;15.30;12.95;;;21.60;97.80;;;;;;5052532;28;20212;-41
2022/09/07 05:24:10;;;;;;;16.73;13.35;;;21.60;97.80;;;;;;5050921;28;20220;-42
2022/09/07 05:26:39;;;;;;;15.75;13.57;;;21.60;97.80;;;;;;5052079;28;20240;-40
2022/09/07 05:29:09;;;;;;;16.35;13.90;;;21.60;97.70;;;;;;5049125;28;20208;-40
2022/09/07 05:32:00;;;;;;;15.25;13.65;;;21.60;97.80;;;;;;5058005;28;20207;-40
2022/09/07 05:34:28;;;;;;;14.85;13.00;;;21.60;97.80;;;;;;5064201;28;20208;-41
2022/09/07 05:36:56;;;;;;;15.82;13.50;;;21.60;97.80;;;;;;5049883;28;20215;-41
2022/09/07 05:39:26;;;;;;;14.43;12.93;;;21.60;97.90;;;;;;5057487;28;20224;-41
2022/09/07 05:41:56;;;;;;;16.20;13.57;;;21.60;97.80;;;;;;5052443;28;20296;-41
2022/09/07 05:44:24;;;;;;;16.30;13.40;;;21.60;97.90;;;;;;5049167;28;20691;-41
2022/09/07 05:47:18;;;;;;;16.27;13.88;;;21.60;97.80;;;;;;5057483;28;20196;-41
2022/09/07 05:49:45;;;;;;;15.60;13.82;;;21.60;97.90;;;;;;5044060;28;20326;-40
2022/09/07 05:52:17;;;;;;;13.88;12.57;;;21.60;97.90;;;;;;5048993;28;20482;-41
2022/09/07 05:54:44;;;;;;;15.57;13.02;;;21.60;97.90;;;;;;5046678;28;20294;-46
2022/09/07 05:57:12;;;;;;;15.75;12.85;;;21.60;97.80;;;;;;5049146;28;20231;-46
2022/09/07 05:59:42;;;;;;;15.07;13.55;;;21.60;97.80;;;;;;5061634;28;20741;-45
2022/09/07 06:02:16;;;;;;;18.33;14.07;;;21.60;97.90;;;;;;5064288;28;20203;-46
2022/09/07 06:04:43;;;;;;;17.77;14.18;;;21.60;97.90;;;;;;5060370;28;20226;-45
2022/09/07 06:07:14;;;;;;;16.33;14.13;;;21.60;97.80;;;;;;5047543;28;20212;-45
2022/09/07 06:09:48;;;;;;;16.10;14.23;;;21.60;97.90;;;;;;5046588;28;20196;-45
2022/09/07 06:12:38;;;;;;;18.00;14.60;;;21.50;97.90;;;;;;5047682;28;20202;-45
2022/09/07 06:15:09;;;;;;;16.48;13.60;;;21.50;97.90;;;;;;5059735;28;20219;-49
2022/09/07 06:17:36;;;;;;;20.77;14.27;;;21.50;97.80;;;;;;5048081;28;20210;-45
2022/09/07 06:20:09;;;;;;;18.90;15.50;;;21.50;97.80;;;;;;5051674;28;20216;-45
2022/09/07 06:22:39;;;;;;;15.30;13.82;;;21.40;97.90;;;;;;5047636;28;20227;-46
2022/09/07 06:25:11;;;;;;;16.63;14.85;;;21.40;97.90;;;;;;5057421;28;20240;-39
2022/09/07 06:27:47;;;;;;;15.70;14.00;;;21.40;98.00;;;;;;5045330;28;20744;-39
2022/09/07 06:30:19;;;;;;;15.65;13.68;;;21.40;98.10;;;;;;5056143;28;20207;-39
2022/09/07 06:32:47;;;;;;;17.58;13.15;;;21.40;98.00;;;;;;5057084;28;20644;-45
2022/09/07 06:35:14;;;;;;;15.88;12.65;;;21.40;97.90;;;;;;5051080;28;20203;-46
2022/09/07 06:37:46;;;;;;;18.10;13.80;;;21.40;97.80;;;;;;5051019;28;20671;-45
2022/09/07 06:40:13;;;;;;;16.30;12.75;;;21.40;98.00;;;;;;5053682;28;20219;-45
2022/09/07 06:42:41;;;;;;;14.88;13.38;;;21.40;98.00;;;;;;5054216;28;20203;-45
2022/09/07 06:45:09;;;;;;;15.32;13.60;;;21.40;98.10;;;;;;5061700;28;20274;-45
2022/09/07 06:47:38;;;;;;;15.98;14.38;;;21.40;98.10;;;;;;5049782;28;20212;-45
2022/09/07 06:50:08;;;;;;;14.38;12.02;;;21.40;98.20;;;;;;5057157;28;20244;-45
2022/09/07 06:52:38;;;;;;;15.77;13.30;;;21.40;98.20;;;;;;5047276;28;20689;-45
2022/09/07 06:55:29;;;;;;;14.30;12.82;;;21.50;98.40;;;;;;5059074;28;20222;-45
2022/09/07 06:57:56;;;;;;;15.35;13.35;;;21.50;98.40;;;;;;5048562;28;20622;-44
2022/09/07 07:00:23;;;;;;;15.35;13.48;;;21.50;98.50;;;;;;5058260;28;20269;-45
2022/09/07 07:02:55;;;;;;;16.40;13.48;;;21.60;98.50;;;;;;5056579;28;20210;-45
2022/09/07 07:05:22;;;;;;;16.90;14.73;;;21.60;98.50;;;;;;5057875;28;20230;-45
2022/09/07 07:07:50;;;;;;;19.65;14.45;;;21.60;98.50;;;;;;5053269;28;20309;-45
2022/09/07 07:10:17;;;;;;;16.70;14.90;;;21.70;98.40;;;;;;5048451;28;20220;-45
2022/09/07 07:12:51;;;;;;;19.60;14.07;;;21.70;98.50;;;;;;5047074;28;20211;-39
2022/09/07 07:15:19;;;;;;;17.73;14.25;;;21.70;98.40;;;;;;5047126;28;20586;-39
2022/09/07 07:17:46;;;;;;;17.75;14.27;;;21.80;98.50;;;;;;5060227;28;20212;-39
2022/09/07 07:20:24;;;;;;;17.95;14.65;;;21.80;98.50;;;;;;5081152;28;20206;-39
2022/09/07 07:22:52;;;;;;;16.25;14.45;;;21.80;98.90;;;;;;5072405;28;20216;-39
2022/09/07 07:25:24;;;;;;;14.48;11.52;;;21.90;98.80;;;;;;5058209;28;20224;-39
2022/09/07 07:27:54;;;;;;;19.63;12.75;;;21.90;98.50;;;;;;5045991;28;20605;-39
2022/09/07 07:30:23;;;;;;;20.10;14.07;;;21.90;98.60;;;;;;5049716;28;20197;-39
2022/09/07 07:32:53;;;;;;;15.73;12.82;;;21.90;99.20;;;;;;5064384;28;20238;-39
2022/09/07 07:35:25;;;;;;;14.80;11.35;;;21.90;99.00;;;;;;5066236;28;20540;-39
2022/09/07 07:37:53;;;;;;;14.32;11.07;;;21.90;98.70;;;;;;5053691;28;20579;-45
2022/09/07 07:40:42;;;;;;;11.35;9.93;;;21.90;98.80;;;;;;5048665;28;20213;-39
2022/09/07 07:43:09;;;;;;;11.95;9.70;;;22.00;98.80;;;;;;5046135;28;20336;-39
2022/09/07 07:45:36;;;;;;;18.40;8.80;;;22.00;98.90;;;;;;5046244;28;20224;-39
2022/09/07 07:48:19;;;;;;;11.40;8.05;;;22.00;98.80;;;;;;5058245;28;20727;-45
2022/09/07 07:51:02;;;;;;;12.45;7.07;;;22.00;98.90;;;;;;5048181;28;20216;-45
2022/09/07 07:53:39;;;;;;;17.20;7.53;;;22.10;98.90;;;;;;5052948;28;20231;-45
2022/09/07 07:56:12;;;;;;;10.18;5.47;;;22.10;99.10;;;;;;5045002;28;20689;-45
2022/09/07 07:58:46;;;;;;;8.25;5.00;;;22.20;98.90;;;;;;5052222;28;20236;-44
2022/09/07 08:01:18;;;;;;;9.00;5.40;;;22.20;98.80;;;;;;5055388;28;20670;-44
2022/09/07 08:03:50;;;;;;;13.90;5.63;;;22.20;98.90;;;;;;5069003;28;20211;-44
2022/09/07 08:06:23;;;;;;;11.52;5.22;;;22.20;98.80;;;;;;5064602;28;20208;-44
2022/09/07 08:08:54;;;;;;;9.48;4.15;;;22.20;98.90;;;;;;5062771;28;20565;-44
2022/09/07 08:11:22;;;;;;;4.80;3.03;;;22.20;98.80;;;;;;5080318;28;20198;-44
2022/09/07 08:13:49;;;;;;;7.00;3.60;;;22.30;98.80;;;;;;5072781;28;20203;-45
2022/09/07 08:16:17;;;;;;;5.45;3.00;;;22.30;98.70;;;;;;5059106;28;20693;-44
2022/09/07 08:18:48;;;;;;;11.75;3.35;;;22.30;98.60;;;;;;5056525;28;20299;-44
2022/09/07 08:21:15;;;;;;;4.78;2.72;;;22.30;98.70;;;;;;5049038;28;20208;-45
2022/09/07 08:23:42;;;;;;;6.50;2.35;;;22.40;98.70;;;;;;5059970;28;20204;-45
2022/09/07 08:26:12;;;;;;;5.82;2.30;;;22.40;98.60;;;;;;5048748;28;20204;-45
2022/09/07 08:28:42;;;;;;;4.00;2.20;;;22.40;98.70;;;;;;5045845;28;20200;-44
2022/09/07 08:31:15;;;;;;;7.07;2.20;;;22.40;98.70;;;;;;5040619;28;20199;-44
2022/09/07 08:33:43;;;;;;;5.47;2.08;;;22.50;98.60;;;;;;5058609;28;20200;-44
2022/09/07 08:36:13;;;;;;;7.63;2.63;;;22.50;98.60;;;;;;5055750;28;20212;-39
2022/09/07 08:38:41;;;;;;;4.72;1.77;;;22.50;98.40;;;;;;5051107;28;20223;-39
2022/09/07 08:41:26;;;;;;;5.68;1.83;;;22.60;98.40;;;;;;5053199;28;20200;-39
2022/09/07 08:44:05;;;;;;;5.22;1.73;;;22.60;98.40;;;;;;5050472;28;20208;-39
2022/09/07 08:46:43;;;;;;;8.38;2.20;;;22.60;98.40;;;;;;5051449;28;20231;-39
2022/09/07 08:49:40;;;;;;;7.05;2.35;;;22.70;98.30;;;;;;5069721;28;20273;-39
2022/09/07 08:52:24;;;;;;;8.52;2.42;;;22.70;98.30;;;;;;5050828;28;20243;-39
2022/09/07 08:55:04;;;;;;;8.30;2.53;;;22.70;98.30;;;;;;5052358;28;20613;-39
2022/09/07 08:57:38;;;;;;;9.05;3.00;;;22.80;98.40;;;;;;5053986;28;20694;-39
2022/09/07 09:00:10;;;;;;;7.32;3.20;;;22.80;98.50;;;;;;5050396;28;20240;-39
2022/09/07 09:02:40;;;;;;;8.50;3.20;;;22.90;98.70;;;;;;5047667;28;20625;-39
2022/09/07 09:05:49;;;;;;;9.05;3.17;;;22.90;98.40;;;;;;5049351;28;20240;-39
2022/09/07 09:08:29;;;;;;;7.40;3.38;;;23.00;98.20;;;;;;5057295;28;20219;-45
2022/09/07 09:11:19;;;;;;;8.23;3.08;;;23.00;98.30;;;;;;5053430;28;20800;-45
2022/09/07 09:14:23;;;;;;;10.68;3.75;;;23.10;98.40;;;;;;5048831;28;20672;-45
2022/09/07 09:16:59;;;;;;;8.93;2.60;;;23.20;98.40;;;;;;5054590;28;20633;-45
2022/09/07 09:19:57;;;;;;;5.05;2.08;;;23.20;98.50;;;;;;5056609;28;20196;-45
2022/09/07 09:22:27;;;;;;;6.40;1.90;;;23.20;98.50;;;;;;5055879;28;20320;-46
2022/09/07 09:25:29;;;;;;;7.20;1.65;;;23.30;98.50;;;;;;5047266;28;20228;-46
2022/09/07 09:27:58;;;;;;;3.25;1.27;;;23.30;98.30;;;;;;5061882;28;20216;-45
2022/09/07 09:30:27;;;;;;;4.13;1.20;;;23.50;97.40;;;;;;5045386;28;20388;-46
2022/09/07 09:33:15;;;;;;;5.25;1.55;;;23.50;97.90;;;;;;5048563;28;20204;-46
2022/09/07 09:35:44;;;;;;;3.33;1.27;;;23.50;97.40;;;;;;5048391;28;20208;-46
2022/09/07 09:38:36;;;;;;;5.03;1.50;;;23.50;97.30;;;;;;5061491;28;20234;-46
2022/09/07 09:41:11;;;;;;;3.47;1.50;;;23.60;97.40;;;;;;5072090;28;20788;-46
2022/09/07 09:43:54;;;;;;;4.50;1.27;;;23.60;97.70;;;;;;5058543;28;20207;-45
2022/09/07 09:46:27;;;;;;;4.80;1.15;;;23.60;97.70;;;;;;5054470;28;20343;-46
2022/09/07 09:49:17;;;;;;;4.75;1.10;;;23.60;97.80;;;;;;5047888;28;20211;-46
2022/09/07 09:51:50;;;;;;;3.17;1.25;;;23.60;98.00;;;;;;5051299;28;20196;-46
2022/09/07 09:54:42;;;;;;;4.28;1.55;;;23.70;97.90;;;;;;5048844;28;20220;-47
2022/09/07 09:57:35;;;;;;;2.88;0.93;;;23.80;97.30;;;;;;5054968;28;20749;-47
2022/09/07 10:00:03;;;;;;;3.33;1.25;;;23.80;97.50;;;;;;5067062;28;20204;-46
2022/09/07 10:02:37;;;;;;;3.45;1.00;;;23.90;97.40;;;;;;5050161;28;20685;-45
2022/09/07 10:05:29;;;;;;;7.90;1.20;;;23.90;97.60;;;;;;5059955;28;20235;-46
2022/09/07 10:07:57;;;;;;;4.28;1.10;;;24.00;98.00;;;;;;5054944;28;20200;-47
2022/09/07 10:10:26;;;;;;;3.03;1.13;;;24.00;97.60;;;;;;5048512;28;20211;-46
2022/09/07 10:12:54;;;;;;;3.28;1.20;;;24.00;97.60;;;;;;5051855;28;20219;-45
2022/09/07 10:15:38;;;;;;;5.95;1.13;;;24.10;96.40;;;;;;5048166;28;20216;-46
2022/09/07 10:18:20;;;;;;;5.03;1.30;;;24.20;96.10;;;;;;5047292;28;20216;-46
2022/09/07 10:20:49;;;;;;;3.35;1.27;;;24.20;96.90;;;;;;5047132;28;20262;-45
2022/09/07 10:23:25;;;;;;;5.50;1.20;;;24.20;96.70;;;;;;5060327;28;21014;-46
2022/09/07 10:25:52;;;;;;;2.15;1.00;;;24.30;96.40;;;;;;5051871;28;20714;-45
2022/09/07 10:28:23;;;;;;;4.40;1.08;;;24.30;96.60;;;;;;5058877;28;20211;-46
2022/09/07 10:31:19;;;;;;;4.05;1.40;;;24.30;96.90;;;;;;5048728;28;20674;-45
2022/09/07 10:33:57;;;;;;;7.97;1.45;;;24.40;97.10;;;;;;5047409;28;20205;-50
2022/09/07 10:37:08;;;;;;;3.70;1.10;;;24.40;96.30;;;;;;5050957;28;20261;-44
2022/09/07 10:39:41;;;;;;;2.70;1.20;;;24.50;96.30;;;;;;5056632;28;20692;-45
2022/09/07 10:42:11;;;;;;;3.70;1.00;;;24.50;96.10;;;;;;5061429;28;20291;-46
2022/09/07 10:44:56;;;;;;;3.30;0.90;;;24.50;95.20;;;;;;5055054;28;20277;-46
2022/09/07 10:47:38;;;;;;;3.58;1.20;;;24.50;95.90;;;;;;5058442;28;20866;-39
2022/09/07 10:50:40;;;;;;;3.25;1.15;;;24.50;95.90;;;;;;5055105;28;20203;-38
2022/09/07 10:53:56;;;;;;;4.40;1.00;;;24.50;96.20;;;;;;5045649;28;20216;-39
2022/09/07 10:57:01;;;;;;;4.43;0.98;;;24.60;95.50;;;;;;5044828;28;20720;-39
2022/09/07 10:59:31;;;;;;;5.05;1.17;;;24.60;95.50;;;;;;5062363;28;20263;-39
2022/09/07 11:02:21;;;;;;;7.65;1.17;;;24.60;95.20;;;;;;5054997;28;20250;-40
2022/09/07 11:05:09;;;;;;;4.45;1.00;;;24.60;95.40;;;;;;5056034;28;20219;-39
2022/09/07 11:07:39;;;;;;;3.78;1.20;;;24.70;96.10;;;;;;5061685;28;20590;-39
2022/09/07 11:10:17;;;;;;;3.40;1.05;;;24.70;96.30;;;;;;5046857;28;20237;-39
2022/09/07 11:12:47;;;;;;;4.00;1.08;;;24.80;96.10;;;;;;5046756;28;20214;-39
2022/09/07 11:15:31;;;;;;;4.78;1.30;;;24.70;96.20;;;;;;5047918;28;20507;-38
2022/09/07 11:18:22;;;;;;;3.58;1.25;;;24.80;96.30;;;;;;5049273;28;20574;-39
2022/09/07 11:20:55;;;;;;;7.10;1.48;;;24.90;96.30;;;;;;5048452;28;20278;-40
2022/09/07 11:23:33;;;;;;;5.00;1.50;;;24.90;95.70;;;;;;5067598;28;20689;-38
2022/09/07 11:26:21;;;;;;;6.10;1.35;;;25.00;95.80;;;;;;5046715;28;20254;-39
2022/09/07 11:28:51;;;;;;;5.03;1.40;;;25.00;96.00;;;;;;5058427;28;20203;-39
2022/09/07 11:31:44;;;;;;;13.43;2.05;;;25.00;96.20;;;;;;5063704;28;20211;-39
2022/09/07 11:34:32;;;;;;;10.52;1.83;;;25.00;96.00;;;;;;5058105;28;20608;-39
2022/09/07 11:37:23;;;;;;;3.90;1.23;;;25.10;95.20;;;;;;5049400;28;20291;-39
2022/09/07 11:40:07;;;;;;;3.65;1.20;;;25.10;95.60;;;;;;5050159;28;20662;-47
2022/09/07 11:42:58;;;;;;;6.70;1.33;;;25.20;94.80;;;;;;5056535;28;20625;-47
2022/09/07 11:45:44;;;;;;;4.30;0.95;;;25.20;95.10;;;;;;5056293;28;20583;-47
2022/09/07 11:48:27;;;;;;;4.63;1.45;;;25.20;95.50;;;;;;5047590;28;20211;-46
2022/09/07 11:51:13;;;;;;;4.53;1.10;;;25.30;95.50;;;;;;5048396;28;20245;-47
2022/09/07 11:53:53;;;;;;;6.47;1.25;;;25.30;93.60;;;;;;5046070;28;20207;-47
2022/09/07 11:56:28;;;;;;;8.75;1.40;;;25.30;94.60;;;;;;5052562;28;20652;-47
2022/09/07 11:59:22;;;;;;;9.43;1.40;;;25.30;95.10;;;;;;5053789;28;20239;-47
2022/09/07 12:02:14;;;;;;;3.28;0.95;;;25.30;95.00;;;;;;5049347;28;20205;-47
2022/09/07 12:05:06;;;;;;;5.63;1.38;;;25.30;95.40;;;;;;5060789;28;20203;-47
2022/09/07 12:07:38;;;;;;;3.45;1.20;;;25.40;94.70;;;;;;5057932;28;20220;-47
2022/09/07 12:10:17;;;;;;;5.80;1.67;;;25.40;94.20;;;;;;5058503;28;20208;-46
2022/09/07 12:12:53;;;;;;;9.93;2.20;;;25.50;94.90;;;;;;5048100;28;20200;-46
2022/09/07 12:15:55;;;;;;;4.75;1.65;;;25.50;94.80;;;;;;5046760;28;20311;-47
2022/09/07 12:18:45;;;;;;;3.42;0.90;;;25.50;94.90;;;;;;5026015;28;20546;-47
2022/09/07 12:21:39;;;;;;;6.30;1.25;;;25.50;94.70;;;;;;5050434;28;20196;-48
2022/09/07 12:24:31;;;;;;;3.75;0.98;;;25.60;94.50;;;;;;5052973;28;20220;-39
2022/09/07 12:27:02;;;;;;;4.13;0.98;;;25.60;94.50;;;;;;5046481;28;20223;-40
2022/09/07 12:29:30;;;;;;;3.58;1.17;;;25.60;94.70;;;;;;5057187;28;20258;-39
2022/09/07 12:32:03;;;;;;;4.57;1.13;;;25.70;93.40;;;;;;5045724;28;20752;-39
2022/09/07 12:34:53;;;;;;;4.22;1.38;;;25.70;94.20;;;;;;5061586;28;20214;-38
2022/09/07 12:37:37;;;;;;;4.53;1.23;;;25.70;94.00;;;;;;5049375;28;20569;-39
2022/09/07 12:40:29;;;;;;;6.38;1.35;;;25.70;93.90;;;;;;5054415;28;20230;-39
2022/09/07 12:43:14;;;;;;;4.82;1.55;;;25.70;94.30;;;;;;5054416;28;20212;-39
2022/09/07 12:45:43;;;;;;;2.83;1.27;;;25.80;94.10;;;;;;5049024;28;20251;-39
2022/09/07 12:48:16;;;;;;;7.05;1.70;;;25.80;94.10;;;;;;5062275;28;20195;-39
2022/09/07 12:51:05;;;;;;;6.20;1.95;;;25.80;94.40;;;;;;5065140;28;20215;-39
2022/09/07 12:53:52;;;;;;;3.60;1.00;;;25.90;94.00;;;;;;5058342;28;20204;-39
2022/09/07 12:56:34;;;;;;;4.75;1.10;;;25.90;93.40;;;;;;5054505;28;20211;-39
2022/09/07 12:59:17;;;;;;;3.85;1.40;;;26.00;93.10;;;;;;5051342;28;20718;-49
2022/09/07 13:02:09;;;;;;;4.57;1.27;;;25.90;93.30;;;;;;5048452;28;20762;-49
2022/09/07 13:05:02;;;;;;;6.47;1.35;;;26.00;92.80;;;;;;5058961;28;20214;-49
2022/09/07 13:07:56;;;;;;;4.45;0.98;;;26.00;93.50;;;;;;5057135;28;20260;-39
2022/09/07 13:10:46;;;;;;;3.55;0.82;;;25.90;92.50;;;;;;5060945;28;20196;-39
2022/09/07 13:13:19;;;;;;;5.10;1.50;;;25.90;92.90;;;;;;5057496;28;20260;-39
2022/09/07 13:16:09;;;;;;;6.78;1.65;;;26.00;93.10;;;;;;5045972;28;20985;-39
2022/09/07 13:18:41;;;;;;;8.15;1.20;;;26.00;92.80;;;;;;5058706;28;20220;-39
2022/09/07 13:21:10;;;;;;;3.78;1.20;;;26.10;92.20;;;;;;5060633;28;20679;-39
2022/09/07 13:23:46;;;;;;;4.22;1.05;;;26.10;92.90;;;;;;5051689;28;20240;-39
2022/09/07 13:26:56;;;;;;;8.40;1.80;;;26.10;92.50;;;;;;5054529;28;20223;-39